Time;durP1;ratioP1;P1;durP2;ratioP2;P2;SDS_P1;SDS_P2;PMS_P1;PMS_P2;Temp;Humidity;BMP_temperature;BMP_pressure;BME280_temperature;BME280_humidity;BME280_pressure;Samples;Min_cycle;Max_cycle;Signal;HPM_P1;HPM_P2
2021/09/12 00:01:45;;;;;;;17.90;16.20;;;;;;;15.62;82.21;99527.44;5033662;28;20232;-87
2021/09/12 00:04:17;;;;;;;17.03;15.47;;;;;;;15.58;82.28;99526.34;5017535;28;20308;-91
2021/09/12 00:06:48;;;;;;;17.70;16.20;;;;;;;15.61;82.43;99527.69;5033807;28;20230;-82
2021/09/12 00:09:19;;;;;;;17.83;16.33;;;;;;;15.56;82.62;99511.44;5018213;28;20222;-91
2021/09/12 00:11:53;;;;;;;17.47;15.90;;;;;;;15.54;82.67;99519.00;5017976;28;20232;-87
2021/09/12 00:14:24;;;;;;;18.40;16.80;;;;;;;15.49;82.93;99514.28;5033524;28;20637;-84
2021/09/12 00:16:56;;;;;;;17.93;16.43;;;;;;;15.50;83.10;99515.94;5017728;28;20244;-86
2021/09/12 00:19:29;;;;;;;18.10;16.50;;;;;;;15.43;83.07;99507.22;5035200;28;20226;-83
2021/09/12 00:21:58;;;;;;;18.03;16.53;;;;;;;15.49;82.95;99517.00;5021430;28;20543;-88
2021/09/12 00:24:29;;;;;;;18.80;17.10;;;;;;;15.51;83.10;99525.69;5037460;28;20651;-87
2021/09/12 00:26:58;;;;;;;18.90;17.13;;;;;;;15.43;83.39;99515.31;5021374;28;20226;-94
2021/09/12 00:29:29;;;;;;;19.00;17.40;;;;;;;15.45;83.32;99526.69;5037674;28;20236;-87
2021/09/12 00:31:59;;;;;;;18.70;17.00;;;;;;;15.33;83.38;99521.44;5037369;28;20234;-88
2021/09/12 00:34:29;;;;;;;18.67;17.00;;;;;;;15.33;83.63;99520.63;5037725;28;20222;-86
2021/09/12 00:37:02;;;;;;;18.90;17.17;;;;;;;15.33;83.45;99517.91;5022166;28;20230;-87
2021/09/12 00:39:36;;;;;;;18.40;16.67;;;;;;;15.25;83.41;99516.50;5005186;28;20226;-90
2021/09/12 00:42:11;;;;;;;19.40;17.60;;;;;;;15.30;83.10;99530.00;5021680;28;20228;-85
2021/09/12 00:44:43;;;;;;;18.23;16.67;;;;;;;15.22;83.11;99516.16;5037423;28;20701;-83
2021/09/12 00:47:14;;;;;;;18.67;17.07;;;;;;;15.26;83.10;99526.19;5021138;28;20225;-83
2021/09/12 00:49:43;;;;;;;17.73;16.23;;;;;;;15.25;82.89;99521.06;5020969;28;20284;-89
2021/09/12 00:52:15;;;;;;;18.40;16.80;;;;;;;15.19;82.97;99514.78;5020734;28;20249;-87
2021/09/12 00:54:47;;;;;;;18.00;16.40;;;;;;;15.17;83.18;99519.59;5036908;28;20241;-87
2021/09/12 00:57:19;;;;;;;18.17;16.67;;;;;;;15.13;83.16;99525.75;5037257;28;20298;-83
2021/09/12 00:59:49;;;;;;;17.80;16.30;;;;;;;15.13;82.96;99528.47;5037134;28;20308;-86
2021/09/12 01:02:21;;;;;;;17.97;16.43;;;;;;;15.07;82.80;99519.47;5036304;28;20241;-90
2021/09/12 01:04:52;;;;;;;18.17;16.47;;;;;;;15.05;83.21;99518.13;5020873;28;20262;-85
2021/09/12 01:07:25;;;;;;;18.70;17.10;;;;;;;15.01;83.01;99509.72;5021302;28;20225;-89
2021/09/12 01:09:57;;;;;;;18.53;16.93;;;;;;;14.96;83.39;99507.78;5020805;28;20238;-84
2021/09/12 01:12:28;;;;;;;18.53;16.93;;;;;;;14.97;83.48;99511.28;5035671;28;20239;-88
2021/09/12 01:15:00;;;;;;;18.33;16.67;;;;;;;14.92;83.49;99505.81;5020810;28;20570;-86
2021/09/12 01:17:31;;;;;;;20.00;18.07;;;;;;;14.91;83.64;99506.88;5020962;28;20228;-92
2021/09/12 01:20:03;;;;;;;18.33;16.73;;;;;;;14.97;83.96;99520.19;5035908;28;20640;-87
2021/09/12 01:22:36;;;;;;;18.27;16.57;;;;;;;14.90;83.68;99514.16;5005119;28;20699;-84
2021/09/12 01:25:11;;;;;;;18.20;16.60;;;;;;;14.82;83.78;99517.31;5037315;28;20693;-88
2021/09/12 01:27:42;;;;;;;17.80;16.30;;;;;;;14.82;83.65;99522.69;5020556;28;20232;-84
2021/09/12 01:30:16;;;;;;;18.10;16.60;;;;;;;14.81;83.69;99523.75;5035527;28;20232;-84
2021/09/12 01:32:51;;;;;;;17.77;16.23;;;;;;;14.79;83.31;99525.88;5036533;28;20233;-92
2021/09/12 01:35:28;;;;;;;18.67;17.00;;;;;;;14.77;83.58;99530.72;5036480;28;20235;-86
2021/09/12 01:37:58;;;;;;;18.83;17.13;;;;;;;14.67;83.77;99510.88;5020383;28;20220;-89
2021/09/12 01:40:28;;;;;;;17.77;16.27;;;;;;;14.71;84.04;99515.53;5019791;28;20233;-87
2021/09/12 01:43:12;;;;;;;19.13;17.13;;;;;;;14.72;83.83;99522.56;5021600;28;20231;-85
2021/09/12 01:45:44;;;;;;;18.30;16.70;;;;;;;14.61;83.71;99504.59;5036081;28;20234;-85
2021/09/12 01:48:15;;;;;;;17.50;15.90;;;;;;;14.65;83.77;99513.81;5035838;28;20241;-86
2021/09/12 01:50:49;;;;;;;18.70;17.10;;;;;;;14.65;84.02;99511.13;5036165;28;20236;-82
2021/09/12 01:53:22;;;;;;;18.17;16.57;;;;;;;14.65;83.82;99511.13;5035946;28;20322;-84
2021/09/12 01:55:54;;;;;;;19.03;17.33;;;;;;;14.58;83.65;99497.00;5036086;28;20312;-90
2021/09/12 01:58:26;;;;;;;19.63;17.83;;;;;;;14.68;84.01;99510.63;5035591;28;20311;-84
2021/09/12 02:00:56;;;;;;;18.00;16.50;;;;;;;14.70;83.98;99519.28;5019885;28;20291;-89
2021/09/12 02:03:29;;;;;;;18.03;16.43;;;;;;;14.68;83.80;99521.41;5019440;28;20271;-82
2021/09/12 02:05:59;;;;;;;18.87;17.07;;;;;;;14.70;83.86;99519.28;5020142;28;20298;-87
2021/09/12 02:08:32;;;;;;;19.07;17.30;;;;;;;14.69;84.03;99520.38;5019791;28;20236;-84
2021/09/12 02:11:09;;;;;;;18.60;17.10;;;;;;;14.61;84.33;99501.91;5035675;28;20239;-85
2021/09/12 02:13:38;;;;;;;19.10;17.50;;;;;;;14.57;84.24;99500.75;5020128;28;20627;-89
2021/09/12 02:16:11;;;;;;;19.23;17.60;;;;;;;14.67;84.18;99518.97;5035487;28;20292;-86
2021/09/12 02:18:42;;;;;;;18.67;17.03;;;;;;;14.61;84.13;99514.56;5018841;28;20231;-91
2021/09/12 02:21:14;;;;;;;19.90;18.20;;;;;;;14.62;84.47;99513.50;5035138;28;20319;-94
2021/09/12 02:23:46;;;;;;;19.60;17.60;;;;;;;14.66;84.54;99520.03;5035404;28;20236;-86
2021/09/12 02:26:17;;;;;;;18.90;17.20;;;;;;;14.53;84.25;99505.03;5036130;28;20230;-89
2021/09/12 02:28:51;;;;;;;19.43;17.73;;;;;;;14.46;84.08;99494.41;5019527;28;20534;-86
2021/09/12 02:31:25;;;;;;;18.30;16.60;;;;;;;14.54;84.27;99518.25;5035278;28;20248;-89
2021/09/12 02:33:55;;;;;;;19.33;17.60;;;;;;;14.57;84.45;99519.63;5035341;28;20257;-84
2021/09/12 02:36:25;;;;;;;18.87;17.17;;;;;;;14.50;84.07;99509.03;5003497;28;20231;-82
2021/09/12 02:38:56;;;;;;;18.67;17.07;;;;;;;14.47;84.34;99517.59;5019265;28;20237;-85
2021/09/12 02:41:26;;;;;;;18.23;16.67;;;;;;;14.45;84.12;99517.06;5018690;28;20532;-86
2021/09/12 02:43:58;;;;;;;19.33;17.63;;;;;;;14.42;84.31;99514.84;4999116;28;20322;-83
2021/09/12 02:46:27;;;;;;;18.47;16.77;;;;;;;14.38;84.48;99519.09;5030963;28;20233;-87
2021/09/12 02:48:58;;;;;;;18.33;16.83;;;;;;;14.31;84.20;99504.13;5030959;28;20537;-92
2021/09/12 02:51:29;;;;;;;17.77;16.17;;;;;;;14.36;84.25;99528.50;5030988;28;20243;-88
2021/09/12 02:53:59;;;;;;;18.80;17.20;;;;;;;14.31;84.07;99526.50;5031090;28;20224;-91
2021/09/12 02:56:33;;;;;;;18.40;16.70;;;;;;;14.23;84.01;99518.81;5014824;28;20545;-90
2021/09/12 02:59:09;;;;;;;18.53;16.93;;;;;;;14.29;84.32;99534.00;5030735;28;20233;-94
2021/09/12 03:01:44;;;;;;;18.73;17.13;;;;;;;14.24;84.46;99525.03;5030449;28;20237;-90
2021/09/12 03:04:16;;;;;;;18.57;16.77;;;;;;;14.16;84.13;99514.66;5015578;28;20232;-83
2021/09/12 03:06:43;;;;;;;19.53;17.83;;;;;;;14.18;84.42;99528.72;5014853;28;20229;-82
2021/09/12 03:09:14;;;;;;;19.73;18.10;;;;;;;14.15;84.47;99521.13;5014924;28;20716;-82
2021/09/12 03:11:45;;;;;;;20.30;18.50;;;;;;;14.12;84.47;99519.75;5014720;28;20656;-86
2021/09/12 03:14:17;;;;;;;19.63;17.83;;;;;;;14.13;84.81;99529.47;5030185;28;20229;-82
2021/09/12 03:16:54;;;;;;;20.17;18.37;;;;;;;14.12;84.99;99527.81;5031295;28;20240;-85
2021/09/12 03:19:25;;;;;;;19.07;17.43;;;;;;;14.03;85.08;99531.97;4999167;28;20224;-82
2021/09/12 03:21:59;;;;;;;19.77;18.10;;;;;;;14.05;84.97;99536.06;4998727;28;20248;-82
2021/09/12 03:24:29;;;;;;;19.63;17.83;;;;;;;14.00;85.42;99533.28;4998839;28;20232;-87
2021/09/12 03:26:57;;;;;;;20.27;18.47;;;;;;;13.88;85.10;99519.06;5014453;28;20257;-81
2021/09/12 03:29:28;;;;;;;19.80;18.00;;;;;;;13.93;85.07;99526.41;5014497;28;20236;-83
2021/09/12 03:31:59;;;;;;;18.83;17.23;;;;;;;13.88;85.43;99520.94;4998615;28;20684;-81
2021/09/12 03:34:30;;;;;;;20.10;18.20;;;;;;;13.83;85.09;99518.97;5014490;28;20224;-86
2021/09/12 03:37:02;;;;;;;20.07;18.27;;;;;;;13.84;85.12;99528.69;5014689;28;20237;-90
2021/09/12 03:39:34;;;;;;;19.67;17.97;;;;;;;13.86;85.32;99542.72;4998778;28;20319;-88
2021/09/12 03:42:08;;;;;;;19.30;17.67;;;;;;;13.84;85.44;99535.97;4998573;28;20328;-82
2021/09/12 03:44:38;;;;;;;20.37;18.60;;;;;;;13.87;85.44;99541.66;4998485;28;20700;-84
2021/09/12 03:47:08;;;;;;;18.60;16.90;;;;;;;13.91;85.72;99540.13;4998131;28;20689;-86
2021/09/12 03:49:42;;;;;;;19.37;17.67;;;;;;;13.88;85.43;99531.72;4998184;28;20227;-82
2021/09/12 03:52:13;;;;;;;19.27;17.57;;;;;;;13.82;85.25;99524.59;4982043;28;20231;-88
2021/09/12 03:54:44;;;;;;;18.67;16.93;;;;;;;13.82;85.60;99519.22;4998024;28;20282;-83
2021/09/12 03:57:15;;;;;;;20.13;18.37;;;;;;;13.83;85.61;99524.38;5014062;28;20328;-79
2021/09/12 03:59:50;;;;;;;19.23;17.53;;;;;;;13.86;85.40;99529.25;5014093;28;20240;-85
2021/09/12 04:02:23;;;;;;;18.67;17.07;;;;;;;13.81;85.44;99526.47;4998574;28;20235;-81
2021/09/12 04:04:59;;;;;;;19.27;17.67;;;;;;;13.82;84.99;99528.13;5014119;28;20247;-84
2021/09/12 04:07:29;;;;;;;18.93;17.23;;;;;;;13.78;85.16;99518.91;5014054;28;20236;-85
2021/09/12 04:10:00;;;;;;;18.23;16.53;;;;;;;13.75;85.59;99524.78;4998703;28;20236;-83
2021/09/12 04:12:39;;;;;;;18.27;16.67;;;;;;;13.72;85.26;99516.38;4998599;28;20282;-87
2021/09/12 04:15:16;;;;;;;19.70;17.93;;;;;;;13.71;85.93;99526.31;5015422;28;20241;-82
2021/09/12 04:17:46;;;;;;;21.40;19.40;;;;;;;13.66;85.84;99524.34;5014085;28;20538;-85
2021/09/12 04:20:17;;;;;;;20.17;18.20;;;;;;;13.69;85.81;99520.34;5013535;28;20250;-83
2021/09/12 04:22:54;;;;;;;19.57;17.80;;;;;;;13.74;85.93;99531.22;5013924;28;20235;-87
2021/09/12 04:25:28;;;;;;;22.07;20.00;;;;;;;13.70;85.78;99518.47;5015106;28;20235;-80
2021/09/12 04:28:02;;;;;;;23.07;20.97;;;;;;;13.72;85.62;99519.84;5015122;28;20507;-91
2021/09/12 04:30:37;;;;;;;24.03;21.73;;;;;;;13.69;85.46;99517.66;5014540;28;20222;-82
2021/09/12 04:33:09;;;;;;;20.90;19.00;;;;;;;13.77;85.74;99540.66;5014100;28;20579;-82
2021/09/12 04:35:48;;;;;;;20.67;18.77;;;;;;;13.73;85.73;99524.19;5014240;28;20247;-80
2021/09/12 04:38:28;;;;;;;20.13;18.13;;;;;;;13.69;85.43;99528.44;5015170;28;20289;-83
2021/09/12 04:41:02;;;;;;;19.53;17.60;;;;;;;13.80;85.03;99541.03;5014914;28;20327;-80
2021/09/12 04:43:38;;;;;;;19.90;18.10;;;;;;;13.75;85.06;99524.78;4999172;28;20227;-87
2021/09/12 04:46:12;;;;;;;19.20;17.30;;;;;;;13.82;84.81;99535.38;5013318;28;20236;-84
2021/09/12 04:48:49;;;;;;;21.10;19.00;;;;;;;13.92;84.89;99539.06;5013926;28;20239;-83
2021/09/12 04:51:29;;;;;;;20.73;18.83;;;;;;;13.83;84.93;99516.28;5016220;28;20625;-80
2021/09/12 04:54:06;;;;;;;19.73;17.90;;;;;;;14.01;85.14;99536.78;5015804;28;20310;-81
2021/09/12 04:56:36;;;;;;;19.40;17.60;;;;;;;13.98;84.86;99531.91;4998339;28;20239;-85
2021/09/12 04:59:06;;;;;;;19.80;18.10;;;;;;;14.06;84.83;99535.00;5014682;28;20315;-85
2021/09/12 05:01:44;;;;;;;18.80;17.10;;;;;;;14.21;84.60;99545.22;5013642;28;20607;-90
2021/09/12 05:04:20;;;;;;;19.53;17.90;;;;;;;14.33;84.58;99539.72;5014141;28;20244;-86
2021/09/12 05:06:52;;;;;;;21.07;18.93;;;;;;;14.45;83.98;99545.88;5015610;28;20529;-84
2021/09/12 05:09:28;;;;;;;19.83;18.13;;;;;;;14.59;84.10;99543.66;5017160;28;20294;-85
2021/09/12 05:11:58;;;;;;;19.73;18.13;;;;;;;14.68;83.60;99543.00;5001308;28;20648;-88
2021/09/12 05:14:31;;;;;;;19.83;18.03;;;;;;;14.81;83.32;99536.41;5017197;28;20232;-80
2021/09/12 05:17:10;;;;;;;19.93;18.10;;;;;;;14.97;83.39;99543.66;5002061;28;20647;-88
2021/09/12 05:19:46;;;;;;;19.77;17.93;;;;;;;15.09;82.96;99540.81;5016874;28;20227;-82
2021/09/12 05:22:22;;;;;;;19.53;17.70;;;;;;;15.22;82.84;99541.25;5001475;28;20228;-90
2021/09/12 05:24:55;;;;;;;18.40;16.77;;;;;;;15.41;82.78;99549.84;5016554;28;20228;-95
2021/09/12 05:27:25;;;;;;;19.30;17.60;;;;;;;15.61;82.21;99568.19;5017834;28;20259;-81
2021/09/12 05:29:56;;;;;;;20.03;18.33;;;;;;;15.74;81.75;99554.28;5016903;28;20225;-83
2021/09/12 05:32:26;;;;;;;20.27;18.50;;;;;;;15.91;81.29;99556.91;5000633;28;20255;-95
2021/09/12 05:34:56;;;;;;;20.93;19.13;;;;;;;16.03;80.72;99558.34;5000900;28;20234;-91
2021/09/12 05:37:27;;;;;;;20.13;18.20;;;;;;;16.20;80.02;99569.03;5016711;28;20237;-82
2021/09/12 05:40:00;;;;;;;20.17;18.47;;;;;;;16.31;80.25;99562.66;5016642;28;20655;-95
2021/09/12 05:42:30;;;;;;;19.80;18.03;;;;;;;16.45;79.62;99565.72;5016153;28;20237;-87
2021/09/12 05:45:00;;;;;;;20.00;18.30;;;;;;;16.59;79.27;99559.66;5000668;28;20228;-89
2021/09/12 05:47:32;;;;;;;20.03;18.27;;;;;;;16.80;78.67;99560.56;5016235;28;20658;-87
2021/09/12 05:50:04;;;;;;;19.00;17.47;;;;;;;16.99;78.06;99564.47;5015877;28;20249;-85
2021/09/12 05:52:37;;;;;;;18.13;16.53;;;;;;;17.16;77.37;99565.13;5017388;28;20237;-87
2021/09/12 05:55:08;;;;;;;18.93;17.17;;;;;;;17.27;76.85;99568.66;5016239;28;20253;-92
2021/09/12 05:57:40;;;;;;;17.80;16.40;;;;;;;17.41;75.77;99569.81;5017112;28;20238;-91
2021/09/12 06:00:14;;;;;;;18.17;16.60;;;;;;;17.55;75.46;99567.41;5015733;28;20222;-87
2021/09/12 06:02:43;;;;;;;17.63;16.13;;;;;;;17.68;75.30;99577.78;5000183;28;20247;-90
2021/09/12 06:05:12;;;;;;;18.23;16.73;;;;;;;17.87;74.63;99576.19;5015993;28;20243;-84
2021/09/12 06:07:40;;;;;;;17.73;16.23;;;;;;;17.94;74.40;99568.63;5029465;28;20233;-87
2021/09/12 06:10:12;;;;;;;17.17;15.67;;;;;;;18.18;74.04;99576.22;5019300;28;20505;-81
2021/09/12 06:12:44;;;;;;;17.13;15.70;;;;;;;18.28;73.23;99568.09;5019769;28;20668;-85
2021/09/12 06:15:17;;;;;;;17.10;15.70;;;;;;;18.39;72.32;99556.97;5019661;28;20717;-82
2021/09/12 06:17:47;;;;;;;16.90;15.50;;;;;;;18.62;72.39;99571.09;5034782;28;20222;-83
2021/09/12 06:20:23;;;;;;;18.10;16.70;;;;;;;18.75;72.20;99582.22;5034479;28;20241;-90
2021/09/12 06:22:57;;;;;;;17.40;15.87;;;;;;;18.80;71.77;99574.03;5017797;28;20540;-86
2021/09/12 06:25:29;;;;;;;17.00;15.60;;;;;;;18.90;71.55;99563.16;5018992;28;20214;-91
2021/09/12 06:28:05;;;;;;;16.83;15.30;;;;;;;19.07;71.04;99579.16;5034694;28;20264;-91
2021/09/12 06:30:40;;;;;;;16.97;15.57;;;;;;;19.22;70.20;99570.94;5035454;28;20675;-87
2021/09/12 06:33:16;;;;;;;17.43;16.03;;;;;;;19.46;69.88;99567.59;5019955;28;20229;-91
2021/09/12 06:35:51;;;;;;;16.60;15.13;;;;;;;19.50;69.60;99572.22;5035209;28;20230;-82
2021/09/12 06:38:23;;;;;;;16.53;15.20;;;;;;;19.69;68.92;99578.63;5019265;28;20257;-82
2021/09/12 06:40:53;;;;;;;16.03;14.63;;;;;;;19.84;68.02;99574.19;5034735;28;20226;-86
2021/09/12 06:43:22;;;;;;;17.07;15.53;;;;;;;20.02;68.18;99576.25;5018892;28;20230;-82
2021/09/12 06:45:55;;;;;;;16.87;15.47;;;;;;;20.11;67.42;99577.28;5034717;28;20584;-91
2021/09/12 06:48:26;;;;;;;15.90;14.60;;;;;;;20.34;67.04;99586.66;5034631;28;20234;-84
2021/09/12 06:50:59;;;;;;;16.67;15.27;;;;;;;20.41;67.08;99568.91;5035733;28;20245;-84
2021/09/12 06:53:31;;;;;;;16.53;15.07;;;;;;;20.54;66.47;99576.41;5035273;28;20224;-87
2021/09/12 06:56:04;;;;;;;16.33;14.93;;;;;;;20.70;66.18;99574.38;5034788;28;20225;-83
2021/09/12 06:58:35;;;;;;;16.37;14.87;;;;;;;20.86;65.76;99578.53;5019165;28;20235;-89
2021/09/12 07:01:08;;;;;;;16.80;15.43;;;;;;;20.80;65.78;99566.09;5018993;28;20226;-83
2021/09/12 07:03:39;;;;;;;15.97;14.57;;;;;;;21.04;65.32;99568.84;5035745;28;20235;-89
2021/09/12 07:06:11;;;;;;;16.30;14.90;;;;;;;21.22;64.69;99562.66;5035444;28;20232;-87
2021/09/12 07:08:40;;;;;;;15.57;14.27;;;;;;;21.39;64.08;99565.72;5018488;28;20273;-88
2021/09/12 07:11:13;;;;;;;15.40;14.00;;;;;;;21.50;63.69;99564.50;5001984;28;20238;-86
2021/09/12 07:13:43;;;;;;;14.53;13.40;;;;;;;21.64;63.73;99569.22;5018863;28;20229;-85
2021/09/12 07:16:14;;;;;;;15.33;13.93;;;;;;;21.80;63.01;99576.88;5034099;28;20231;-81
2021/09/12 07:18:43;;;;;;;15.73;14.23;;;;;;;21.95;62.41;99570.44;5018241;28;20226;-87
2021/09/12 07:21:11;;;;;;;14.70;13.60;;;;;;;22.11;62.17;99584.66;5017985;28;20227;-86
2021/09/12 07:23:43;;;;;;;15.40;14.00;;;;;;;22.20;61.56;99577.41;5018815;28;20573;-84
2021/09/12 07:26:14;;;;;;;14.63;13.43;;;;;;;22.31;61.05;99579.66;5033554;28;20264;-82
2021/09/12 07:28:44;;;;;;;14.73;13.53;;;;;;;22.44;61.02;99578.13;5017748;28;20256;-85
2021/09/12 07:31:19;;;;;;;14.67;13.47;;;;;;;22.56;60.12;99572.16;5034069;28;20517;-83
2021/09/12 07:33:52;;;;;;;14.83;13.67;;;;;;;22.75;59.62;99576.50;5018371;28;20233;-82
2021/09/12 07:36:25;;;;;;;13.77;12.73;;;;;;;22.96;59.81;99581.56;5013757;28;20286;-82
2021/09/12 07:38:58;;;;;;;14.07;12.97;;;;;;;23.09;59.53;99581.59;5014442;28;20235;-85
2021/09/12 07:41:28;;;;;;;14.20;13.00;;;;;;;23.23;58.81;99576.13;4998420;28;20234;-82
2021/09/12 07:43:57;;;;;;;14.60;13.50;;;;;;;23.17;58.80;99575.44;4998458;28;20610;-83
2021/09/12 07:46:28;;;;;;;14.35;13.10;;;;;;;23.30;58.17;99575.72;5013777;28;20224;-84
2021/09/12 07:48:58;;;;;;;13.80;12.70;;;;;;;23.40;57.69;99573.59;4998580;28;20589;-89
2021/09/12 07:51:29;;;;;;;13.52;12.52;;;;;;;23.41;57.53;99572.47;5013735;28;20234;-81
2021/09/12 07:53:58;;;;;;;13.40;12.30;;;;;;;23.54;57.52;99579.06;5013234;28;20677;-84
2021/09/12 07:56:29;;;;;;;12.93;11.82;;;;;;;23.56;57.09;99571.38;4996763;28;20249;-83
2021/09/12 07:59:01;;;;;;;11.88;10.98;;;;;;;23.58;56.49;99567.22;4998943;28;20230;-87
2021/09/12 08:01:33;;;;;;;11.57;10.73;;;;;;;23.76;56.13;99575.59;5013565;28;20237;-87
2021/09/12 08:04:03;;;;;;;12.38;11.48;;;;;;;23.82;56.40;99566.97;5013284;28;20251;-84
2021/09/12 08:06:38;;;;;;;11.95;11.00;;;;;;;23.97;56.03;99569.34;5029854;28;20242;-85
2021/09/12 08:09:11;;;;;;;10.73;9.93;;;;;;;24.25;56.15;99581.03;5017865;28;20305;-88
2021/09/12 08:11:43;;;;;;;11.88;10.98;;;;;;;24.47;55.61;99577.47;5033159;28;20317;-87
2021/09/12 08:14:15;;;;;;;12.35;11.30;;;;;;;24.55;54.95;99572.06;5032910;28;20235;-87
2021/09/12 08:16:50;;;;;;;11.63;10.73;;;;;;;24.72;54.26;99567.81;5033464;28;20230;-84
2021/09/12 08:19:23;;;;;;;11.02;10.23;;;;;;;24.85;53.62;99577.88;5033407;28;20245;-84
2021/09/12 08:21:53;;;;;;;11.00;10.15;;;;;;;24.74;54.19;99579.25;5016045;28;20230;-84
2021/09/12 08:24:25;;;;;;;12.20;11.15;;;;;;;24.94;54.02;99574.06;5014062;28;20234;-87
2021/09/12 08:26:54;;;;;;;10.02;9.25;;;;;;;25.10;52.90;99584.63;5031927;28;20280;-84
2021/09/12 08:29:24;;;;;;;10.60;9.80;;;;;;;25.22;53.17;99582.09;5016490;28;20307;-83
2021/09/12 08:31:55;;;;;;;9.63;8.93;;;;;;;25.40;52.77;99576.34;5016270;28;20223;-84
2021/09/12 08:34:27;;;;;;;10.40;9.60;;;;;;;25.64;51.78;99583.38;5013470;28;20642;-82
2021/09/12 08:36:57;;;;;;;11.07;10.20;;;;;;;25.57;52.56;99572.84;5031637;28;20228;-83
2021/09/12 08:39:26;;;;;;;10.00;9.13;;;;;;;25.69;51.36;99572.25;5032827;28;20215;-89
2021/09/12 08:41:57;;;;;;;9.95;9.25;;;;;;;25.88;51.19;99571.94;5032457;28;20252;-86
2021/09/12 08:44:25;;;;;;;8.85;8.13;;;;;;;25.94;51.27;99571.47;5018661;28;20238;-81
2021/09/12 08:46:57;;;;;;;8.20;7.50;;;;;;;25.76;50.82;99567.06;5018996;28;20635;-82
2021/09/12 08:49:29;;;;;;;7.78;7.28;;;;;;;25.63;50.83;99557.84;5035534;28;20222;-81
2021/09/12 08:52:01;;;;;;;7.63;6.93;;;;;;;26.00;50.44;99569.34;5017624;28;20251;-87
2021/09/12 08:54:34;;;;;;;8.48;7.88;;;;;;;25.93;50.39;99561.63;5012001;28;20616;-82
2021/09/12 08:57:06;;;;;;;8.48;7.78;;;;;;;26.13;49.14;99563.69;5011336;28;20275;-84
2021/09/12 08:59:36;;;;;;;8.10;7.40;;;;;;;26.19;49.96;99561.59;5027237;28;20224;-86
2021/09/12 09:02:10;;;;;;;8.23;7.57;;;;;;;26.36;49.95;99561.63;5018665;28;20264;-82
2021/09/12 09:04:38;;;;;;;8.77;7.97;;;;;;;26.47;49.63;99564.81;5013275;28;20302;-84
2021/09/12 09:07:10;;;;;;;7.63;7.07;;;;;;;26.48;49.12;99550.75;5004775;28;20234;-84
2021/09/12 09:09:43;;;;;;;7.45;6.90;;;;;;;26.54;49.69;99563.22;5017028;28;20223;-87
2021/09/12 09:12:36;;;;;;;7.00;6.50;;;;;;;26.68;48.91;99571.25;4999887;28;20503;-85
2021/09/12 09:15:06;;;;;;;7.72;7.07;;;;;;;26.76;48.57;99551.19;5017137;28;20277;-87
2021/09/12 09:17:39;;;;;;;6.88;6.38;;;;;;;26.87;48.06;99554.41;5000601;28;20236;-85
2021/09/12 09:20:11;;;;;;;5.78;5.38;;;;;;;27.03;47.52;99558.22;4998461;28;20334;-81
2021/09/12 09:22:47;;;;;;;4.97;4.60;;;;;;;27.11;47.74;99560.91;5013207;28;20237;-87
2021/09/12 09:25:27;;;;;;;4.55;4.25;;;;;;;27.17;46.02;99564.28;5016582;28;20605;-83
2021/09/12 09:28:09;;;;;;;4.43;4.05;;;;;;;27.14;46.36;99552.03;5035770;28;20299;-82
2021/09/12 09:30:51;;;;;;;5.00;4.60;;;;;;;26.92;45.83;99548.72;5015190;28;20328;-83
2021/09/12 09:33:22;;;;;;;4.93;4.53;;;;;;;27.14;46.21;99545.72;5032593;28;20229;-82
2021/09/12 09:35:59;;;;;;;4.40;4.10;;;;;;;27.20;45.38;99547.16;5033873;28;20233;-85
2021/09/12 09:38:36;;;;;;;4.45;4.10;;;;;;;27.37;45.45;99536.03;5020719;28;20236;-86
2021/09/12 09:41:18;;;;;;;4.40;4.10;;;;;;;27.61;45.65;99532.69;5020310;28;20233;-85
2021/09/12 09:43:53;;;;;;;4.50;4.20;;;;;;;27.67;44.62;99525.03;5020561;28;20324;-82
2021/09/12 09:46:38;;;;;;;4.47;4.18;;;;;;;27.67;43.59;99519.53;5034812;28;20228;-89
2021/09/12 09:49:26;;;;;;;4.40;4.10;;;;;;;27.84;43.16;99530.41;5017913;28;20298;-83
2021/09/12 09:51:54;;;;;;;3.53;3.33;;;;;;;27.94;41.89;99528.06;5018411;28;20241;-84
2021/09/12 09:54:25;;;;;;;4.07;3.78;;;;;;;27.96;42.05;99527.69;5036706;28;20288;-84
2021/09/12 09:56:58;;;;;;;4.30;4.00;;;;;;;27.94;41.65;99525.31;5020030;28;20652;-86
2021/09/12 09:59:34;;;;;;;4.25;3.95;;;;;;;28.10;41.21;99516.41;5020394;28;20640;-88
2021/09/12 10:02:08;;;;;;;3.50;3.30;;;;;;;28.35;39.91;99521.72;5015191;28;20451;-90
2021/09/12 10:04:42;;;;;;;3.60;3.30;;;;;;;28.45;40.71;99520.47;5029686;28;20235;-87
2021/09/12 10:07:12;;;;;;;3.97;3.60;;;;;;;28.74;39.93;99514.03;5011152;28;20280;-88
2021/09/12 10:09:41;;;;;;;3.95;3.65;;;;;;;28.75;39.64;99513.66;5020057;28;20577;-85
2021/09/12 10:12:23;;;;;;;3.80;3.60;;;;;;;29.42;39.01;99509.56;5019232;28;20600;-88
2021/09/12 10:14:59;;;;;;;3.75;3.45;;;;;;;29.77;38.75;99504.28;5010754;28;20241;-86
2021/09/12 10:17:31;;;;;;;3.92;3.50;;;;;;;29.04;40.26;99518.16;5016205;28;20231;-87
2021/09/12 10:20:09;;;;;;;3.55;3.35;;;;;;;29.30;39.69;99513.13;5031887;28;20234;-87
2021/09/12 10:23:01;;;;;;;4.00;3.60;;;;;;;29.33;39.87;99510.81;4999676;28;20241;-90
2021/09/12 10:25:47;;;;;;;4.28;3.42;;;;;;;29.35;39.91;99516.81;5000053;28;20281;-88
2021/09/12 10:28:36;;;;;;;3.83;3.47;;;;;;;29.43;39.70;99518.63;5031859;28;20214;-84
2021/09/12 10:31:28;;;;;;;3.80;3.50;;;;;;;29.53;39.36;99507.13;4999339;28;20292;-85
2021/09/12 10:34:13;;;;;;;3.72;3.42;;;;;;;29.75;38.92;99512.94;5000007;28;20250;-86
2021/09/12 10:36:42;;;;;;;4.10;3.80;;;;;;;29.95;39.09;99508.41;5015693;28;20231;-89
2021/09/12 10:39:31;;;;;;;4.10;3.70;;;;;;;29.94;38.10;99500.47;5017854;28;20929;-91
2021/09/12 10:42:13;;;;;;;3.85;3.55;;;;;;;29.77;38.16;99501.50;5034472;28;20226;-83
2021/09/12 10:45:07;;;;;;;3.83;3.53;;;;;;;29.59;38.64;99497.44;5035235;28;20246;-89
2021/09/12 10:47:36;;;;;;;3.85;3.55;;;;;;;29.73;38.72;99492.31;5018648;28;20233;-84
2021/09/12 10:50:40;;;;;;;3.60;3.40;;;;;;;29.65;38.91;99494.09;5018310;28;20225;-87
2021/09/12 10:53:12;;;;;;;3.88;3.58;;;;;;;29.74;39.31;99488.41;5018807;28;20548;-89
2021/09/12 10:56:04;;;;;;;4.18;3.88;;;;;;;29.32;39.51;99487.94;5035115;28;20237;-87
2021/09/12 10:58:39;;;;;;;4.10;3.75;;;;;;;29.00;40.13;99488.88;5034684;28;20230;-86
2021/09/12 11:01:29;;;;;;;4.32;4.03;;;;;;;28.93;40.53;99483.13;5018920;28;20230;-88
2021/09/12 11:04:10;;;;;;;3.75;3.45;;;;;;;29.00;40.71;99492.44;5018883;28;20234;-85
2021/09/12 11:06:43;;;;;;;4.35;3.95;;;;;;;28.78;40.21;99485.41;5034931;28;20654;-90
2021/09/12 11:09:23;;;;;;;4.15;3.75;;;;;;;28.62;40.98;99483.63;5034724;28;20276;-83
2021/09/12 11:12:00;;;;;;;3.88;3.58;;;;;;;28.42;41.71;99485.31;5034491;28;20272;-86
2021/09/12 11:14:40;;;;;;;3.72;3.42;;;;;;;28.34;41.33;99486.22;5019363;28;20663;-85
2021/09/12 11:17:14;;;;;;;3.70;3.50;;;;;;;28.36;41.19;99467.41;5019366;28;20230;-85
2021/09/12 11:19:53;;;;;;;4.03;3.72;;;;;;;28.45;41.53;99466.16;5018872;28;20230;-90
2021/09/12 11:22:27;;;;;;;3.97;3.70;;;;;;;28.01;42.08;99466.91;5034031;28;20225;-90
2021/09/12 11:25:04;;;;;;;6.55;4.63;;;;;;;28.14;43.15;99465.84;5002921;28;20233;-87
2021/09/12 11:27:36;;;;;;;4.30;3.90;;;;;;;28.17;42.32;99458.88;5018426;28;20222;-85
2021/09/12 11:30:11;;;;;;;3.85;3.65;;;;;;;28.09;42.42;99454.22;5008535;28;20223;-85
2021/09/12 11:32:49;;;;;;;4.18;3.80;;;;;;;27.78;41.90;99438.97;5013396;28;20638;-89
2021/09/12 11:35:17;;;;;;;4.18;3.85;;;;;;;28.00;41.20;99446.84;5014813;28;20514;-91
2021/09/12 11:37:45;;;;;;;3.85;3.63;;;;;;;28.21;41.32;99457.03;5024728;28;20241;-82
2021/09/12 11:40:22;;;;;;;3.75;3.53;;;;;;;28.14;41.69;99445.75;5008443;28;20630;-83
2021/09/12 11:43:16;;;;;;;3.58;3.38;;;;;;;28.07;41.23;99454.56;5016793;28;20229;-84
2021/09/12 11:45:45;;;;;;;4.15;3.90;;;;;;;28.24;40.27;99448.09;5032776;28;20317;-83
2021/09/12 11:48:19;;;;;;;4.32;3.92;;;;;;;27.56;42.86;99437.38;5018117;28;20253;-86
2021/09/12 11:50:48;;;;;;;5.65;4.00;;;;;;;27.70;42.47;99428.03;5030936;28;20237;-90